Terminal Aerodrome Forecast
Issued by NWS

Home | Current Version | Previous Version | Graphics & Text | Print | Product List | Glossary On
Versions: 1 2 3 4 5 6 7 8 9 10 11 12 13 14 15 16 17 18 19 20 21 22 23
000
FTUS43 KICT 240047 AAA
TAFCNU
TAF AMD
KCNU 240047Z 2401/2424 05007KT 6SM -RA OVC007
     FM240600 05008KT 3SM BR VCSH OVC003
     FM241800 16006KT 2SM -RA BR OVC008
     FM242100 24012KT P6SM BKN010=

USA.gov is the U.S. government's official web portal to all federal, state and local government web resources and services.